Terminal Aerodrome Forecast
Issued by NWS Amarillo, TX

Home | Current Version | Previous Version | Text Only | Print | Product List | Glossary On
Versions: 1 2 3 4 5 6 7 8 9 10 11 12
000
FTUS44 KAMA 280520
TAFDHT
TAF
KDHT 280520Z 2806/2906 20015KT P6SM VCTS BKN050CB
     FM280700 35013KT P6SM VCTS BKN040CB OVC100
      TEMPO 2807/2811 VRB35KT 6SM -TSRA BKN040CB
     FM281500 02017KT P6SM SCT100=

USA.gov is the U.S. government's official web portal to all federal, state and local government web resources and services.